createdAt,value
2019-04-26T00:00:13.872Z,9.28
2019-04-26T00:04:24.074Z,9.10
2019-04-26T00:08:33.003Z,8.96
2019-04-26T00:12:49.547Z,9.28
2019-04-26T00:17:23.009Z,9.53
2019-04-26T00:21:31.453Z,9.61
2019-04-26T00:25:39.989Z,9.80
2019-04-26T00:29:47.687Z,9.74
2019-04-26T00:33:55.352Z,9.66
2019-04-26T00:38:03.418Z,9.64
2019-04-26T00:42:12.175Z,9.67
2019-04-26T00:46:23.662Z,9.41
2019-04-26T00:50:33.287Z,9.31
2019-04-26T00:54:42.024Z,9.22
2019-04-26T00:58:50.251Z,9.41
2019-04-26T01:02:58.353Z,9.31
2019-04-26T01:07:06.181Z,9.33
2019-04-26T01:11:16.178Z,9.25
2019-04-26T01:15:26.635Z,9.11
2019-04-26T01:19:35.628Z,9.10
2019-04-26T01:23:46.639Z,9.13
2019-04-26T01:27:54.979Z,9.25
2019-04-26T01:32:08.276Z,9.11
2019-04-26T01:36:18.261Z,9.12
2019-04-26T01:40:28.360Z,9.30
2019-04-26T01:44:46.235Z,9.22
2019-04-26T01:49:06.567Z,9.07
2019-04-26T01:53:14.279Z,9.03
2019-04-26T01:57:25.381Z,9.08
2019-04-26T02:01:55.047Z,8.87
2019-04-26T02:06:03.778Z,9.07
2019-04-26T02:10:14.091Z,9.20
2019-04-26T02:14:22.664Z,9.30
2019-04-26T02:18:33.604Z,9.25
2019-04-26T02:23:13.691Z,9.31
2019-04-26T02:27:24.886Z,9.39
2019-04-26T02:31:37.234Z,9.48
2019-04-26T02:35:43.951Z,9.17
2019-04-26T02:39:52.794Z,9.21
2019-04-26T02:44:03.604Z,9.20
2019-04-26T02:48:35.797Z,9.33
2019-04-26T02:53:16.626Z,9.47
2019-04-26T02:57:36.650Z,9.49
2019-04-26T03:01:45.578Z,9.24
2019-04-26T03:05:55.304Z,9.36
2019-04-26T03:10:03.952Z,9.21
2019-04-26T03:14:34.481Z,9.19
2019-04-26T03:18:55.696Z,9.24
2019-04-26T03:23:41.335Z,9.47
2019-04-26T03:28:15.041Z,9.48
2019-04-26T03:32:54.162Z,9.69
2019-04-26T03:37:21.999Z,9.66
2019-04-26T03:42:06.991Z,9.65
2019-04-26T03:46:45.160Z,9.79
2019-04-26T03:51:05.264Z,9.93
2019-04-26T03:55:51.931Z,10.18
2019-04-26T04:00:28.637Z,10.23
2019-04-26T04:04:46.738Z,10.09
2019-04-26T04:09:03.238Z,10.30
2019-04-26T04:13:40.872Z,10.41
2019-04-26T04:17:59.970Z,10.56
2019-04-26T04:22:10.194Z,10.75
2019-04-26T04:26:23.525Z,10.53
2019-04-26T04:31:15.063Z,10.70
2019-04-26T04:35:25.837Z,10.71
2019-04-26T04:39:46.486Z,10.89
2019-04-26T04:44:11.859Z,11.09
2019-04-26T04:48:35.115Z,11.01
2019-04-26T04:53:30.916Z,11.08
2019-04-26T04:58:04.833Z,11.41
2019-04-26T05:02:27.480Z,11.46
2019-04-26T05:07:06.769Z,11.42
2019-04-26T05:11:20.895Z,11.78
2019-04-26T05:15:51.073Z,12.42
2019-04-26T05:20:15.719Z,12.73
2019-04-26T05:24:42.350Z,13.03
2019-04-26T05:29:19.548Z,13.10
2019-04-26T05:34:08.212Z,12.65
2019-04-26T05:38:51.205Z,13.10
2019-04-26T05:43:39.744Z,13.26
2019-04-26T05:48:11.982Z,14.03
2019-04-26T05:53:05.337Z,14.11
2019-04-26T05:57:56.787Z,14.05
2019-04-26T06:02:59.074Z,14.72
2019-04-26T06:07:32.395Z,14.11
2019-04-26T06:11:54.633Z,14.61
2019-04-26T06:16:21.796Z,14.62
2019-04-26T06:20:55.917Z,14.07
2019-04-26T06:25:32.669Z,15.01
2019-04-26T06:30:01.345Z,15.31
2019-04-26T06:34:20.538Z,15.30
2019-04-26T06:39:28.420Z,15.34
2019-04-26T06:43:44.909Z,15.36
2019-04-26T06:48:01.840Z,15.87
2019-04-26T06:52:13.794Z,15.97
2019-04-26T06:56:44.239Z,15.91
2019-04-26T07:01:16.299Z,16.84
2019-04-26T07:05:29.422Z,16.11
2019-04-26T07:09:59.095Z,16.67
2019-04-26T07:14:48.743Z,16.81
2019-04-26T07:19:19.800Z,16.98
2019-04-26T07:24:05.509Z,17.29
2019-04-26T07:28:49.165Z,17.29
2019-04-26T07:33:33.884Z,17.19
2019-04-26T07:38:11.204Z,17.80
2019-04-26T07:43:03.571Z,18.35
2019-04-26T07:48:19.634Z,17.24
2019-04-26T07:53:22.993Z,17.84
2019-04-26T07:58:26.628Z,17.99
2019-04-26T08:03:00.219Z,17.99
2019-04-26T08:07:13.562Z,18.54
2019-04-26T08:11:29.461Z,18.71
2019-04-26T08:16:08.841Z,19.18
2019-04-26T08:20:39.007Z,19.31
2019-04-26T08:24:49.425Z,19.01
2019-04-26T08:29:00.595Z,19.71
2019-04-26T08:33:14.704Z,19.13
2019-04-26T08:37:36.615Z,19.38
2019-04-26T08:41:44.793Z,19.43
2019-04-26T08:46:26.821Z,19.77
2019-04-26T08:50:42.181Z,19.62
2019-04-26T08:54:54.921Z,19.67
2019-04-26T08:59:10.058Z,19.48
2019-04-26T09:03:51.624Z,19.08
2019-04-26T09:08:03.990Z,18.97
2019-04-26T09:12:23.143Z,19.84
2019-04-26T09:16:28.968Z,19.46
2019-04-26T09:20:38.550Z,19.36
2019-04-26T09:25:02.916Z,19.76
2019-04-26T09:29:40.016Z,19.90
2019-04-26T09:33:51.135Z,20.12
2019-04-26T09:37:59.105Z,20.14
2019-04-26T09:42:14.265Z,20.34
2019-04-26T09:46:44.455Z,19.99
2019-04-26T09:50:53.919Z,20.06
2019-04-26T09:55:01.836Z,20.20
2019-04-26T09:59:09.826Z,20.02
2019-04-26T10:03:17.648Z,20.44
2019-04-26T10:07:26.021Z,20.25
2019-04-26T10:11:43.581Z,20.58
2019-04-26T10:16:11.765Z,20.68
2019-04-26T10:20:19.796Z,20.90
2019-04-26T10:24:27.629Z,21.01
2019-04-26T10:28:35.422Z,21.46
2019-04-26T10:32:43.454Z,21.32
2019-04-26T10:36:53.226Z,20.93
2019-04-26T10:41:01.125Z,20.29
2019-04-26T10:45:14.528Z,20.92
2019-04-26T10:49:40.995Z,19.77
2019-04-26T10:53:56.877Z,19.84
2019-04-26T10:58:15.015Z,20.53
2019-04-26T11:02:23.689Z,21.75
2019-04-26T11:06:31.574Z,20.76
2019-04-26T11:10:48.407Z,20.76
2019-04-26T11:14:49.251Z,20.16
2019-04-26T11:19:01.220Z,20.83
2019-04-26T11:23:08.118Z,20.28
2019-04-26T11:27:17.807Z,20.29
2019-04-26T11:31:27.582Z,19.66
2019-04-26T11:35:35.706Z,20.51
2019-04-26T11:39:43.400Z,19.98
2019-04-26T11:43:52.963Z,20.26
2019-04-26T11:48:03.283Z,20.88
2019-04-26T11:52:11.725Z,20.07
2019-04-26T11:56:20.095Z,20.66
2019-04-26T12:00:32.593Z,19.48
2019-04-26T12:04:59.962Z,20.83
2019-04-26T12:09:19.450Z,19.67
2019-04-26T12:13:27.321Z,19.83
2019-04-26T12:17:36.841Z,20.07
2019-04-26T12:21:44.902Z,20.21
2019-04-26T12:25:54.447Z,19.61
2019-04-26T12:30:02.170Z,20.04
2019-04-26T12:34:14.081Z,19.42
2019-04-26T12:38:20.230Z,19.39
2019-04-26T12:42:28.246Z,18.96
2019-04-26T12:46:44.988Z,19.19
2019-04-26T12:50:52.806Z,19.02
2019-04-26T12:55:00.601Z,19.70
2019-04-26T12:59:08.292Z,19.06
2019-04-26T13:03:20.382Z,18.49
2019-04-26T13:07:26.360Z,18.92
2019-04-26T13:11:52.837Z,19.04
2019-04-26T13:16:09.629Z,19.15
2019-04-26T13:20:17.481Z,18.58
2019-04-26T13:24:25.163Z,18.86
2019-04-26T13:28:32.973Z,19.06
2019-04-26T13:32:40.570Z,18.68
2019-04-26T13:36:52.757Z,18.67
2019-04-26T13:41:04.805Z,18.67
2019-04-26T13:45:27.173Z,18.19
2019-04-26T13:49:42.444Z,17.72
2019-04-26T13:53:50.141Z,18.37
2019-04-26T13:57:57.962Z,18.20
2019-04-26T14:02:11.663Z,17.79
2019-04-26T14:06:15.620Z,17.38
2019-04-26T14:10:23.464Z,16.96
2019-04-26T14:14:34.143Z,16.79
2019-04-26T14:18:42.126Z,16.83
2019-04-26T14:22:59.202Z,16.96
2019-04-26T14:27:25.877Z,17.09
2019-04-26T14:31:35.422Z,16.76
2019-04-26T14:35:46.228Z,16.71
2019-04-26T14:39:55.350Z,16.79
2019-04-26T14:44:14.804Z,17.16
2019-04-26T14:48:20.563Z,16.85
2019-04-26T14:52:24.086Z,16.33
2019-04-26T14:56:33.167Z,16.23
2019-04-26T15:00:43.867Z,16.10
2019-04-26T15:04:58.163Z,16.16
2019-04-26T15:09:16.969Z,16.17
2019-04-26T15:13:20.796Z,15.72
2019-04-26T15:17:26.767Z,15.36
2019-04-26T15:21:34.595Z,15.41
2019-04-26T15:25:48.303Z,15.27
2019-04-26T15:29:52.740Z,15.33
2019-04-26T15:34:00.461Z,15.20
2019-04-26T15:38:08.706Z,14.89
2019-04-26T15:42:30.727Z,14.80
2019-04-26T15:47:03.253Z,14.73
2019-04-26T15:51:10.430Z,14.64
2019-04-26T15:55:18.196Z,14.75
2019-04-26T15:59:26.226Z,14.71
2019-04-26T16:03:36.800Z,14.64
2019-04-26T16:07:43.473Z,14.50
2019-04-26T16:11:55.296Z,14.39
2019-04-26T16:16:03.817Z,14.12
2019-04-26T16:20:13.631Z,14.07
2019-04-26T16:24:24.184Z,14.05
2019-04-26T16:28:38.271Z,13.96
2019-04-26T16:33:08.628Z,13.91
2019-04-26T16:37:21.708Z,13.83
2019-04-26T16:41:27.139Z,13.81
2019-04-26T16:45:37.228Z,13.72
2019-04-26T16:49:46.666Z,13.80
2019-04-26T16:54:06.802Z,13.52
2019-04-26T16:58:04.624Z,13.39
2019-04-26T17:02:13.338Z,13.39
2019-04-26T17:06:23.268Z,13.52
2019-04-26T17:10:32.746Z,13.48
2019-04-26T17:14:45.355Z,13.37
2019-04-26T17:18:50.326Z,13.36
2019-04-26T17:23:30.132Z,13.42
2019-04-26T17:27:35.105Z,13.31
2019-04-26T17:31:43.350Z,13.39
2019-04-26T17:35:51.680Z,13.37
2019-04-26T17:40:00.860Z,13.40
2019-04-26T17:44:11.210Z,13.40
2019-04-26T17:48:18.835Z,13.29
2019-04-26T17:52:31.226Z,13.41
2019-04-26T17:56:39.580Z,13.33
2019-04-26T18:00:47.539Z,12.48
2019-04-26T18:05:00.618Z,12.76
2019-04-26T18:09:05.505Z,12.96
2019-04-26T18:13:16.378Z,12.97
2019-04-26T18:17:41.758Z,13.06
2019-04-26T18:22:07.508Z,12.87
2019-04-26T18:26:17.360Z,13.11
2019-04-26T18:30:26.727Z,12.89
2019-04-26T18:34:40.101Z,12.47
2019-04-26T18:38:48.473Z,12.38
2019-04-26T18:42:55.124Z,12.42
2019-04-26T18:47:14.657Z,12.51
2019-04-26T18:51:23.628Z,12.49
2019-04-26T18:55:34.391Z,11.95
2019-04-26T18:59:44.762Z,11.74
2019-04-26T19:03:53.936Z,11.82
2019-04-26T19:08:02.622Z,12.17
2019-04-26T19:12:11.947Z,12.17
2019-04-26T19:16:41.791Z,11.98
2019-04-26T19:21:03.737Z,11.60
2019-04-26T19:25:20.907Z,11.47
2019-04-26T19:29:29.294Z,11.83
2019-04-26T19:33:31.483Z,11.48
2019-04-26T19:37:39.703Z,11.49
2019-04-26T19:41:47.415Z,11.32
2019-04-26T19:46:25.219Z,11.11
2019-04-26T19:50:55.551Z,11.15
2019-04-26T19:55:13.232Z,11.20
2019-04-26T19:59:23.308Z,11.33
2019-04-26T20:03:32.064Z,11.57
2019-04-26T20:07:41.602Z,11.36
2019-04-26T20:11:51.409Z,11.52
2019-04-26T20:16:02.669Z,11.67
2019-04-26T20:20:18.893Z,11.80
2019-04-26T20:24:19.560Z,11.50
2019-04-26T20:28:29.744Z,11.34
2019-04-26T20:32:38.639Z,11.58
2019-04-26T20:36:47.774Z,11.72
2019-04-26T20:40:55.696Z,11.58
2019-04-26T20:45:04.461Z,11.54
2019-04-26T20:49:12.953Z,11.62
2019-04-26T20:53:21.716Z,11.60
2019-04-26T20:57:31.343Z,11.53
2019-04-26T21:01:43.560Z,11.55
2019-04-26T21:05:52.826Z,11.50
2019-04-26T21:09:59.781Z,11.75
2019-04-26T21:14:08.734Z,11.53
2019-04-26T21:18:16.835Z,11.62
2019-04-26T21:22:28.397Z,11.47
2019-04-26T21:26:56.090Z,11.42
2019-04-26T21:31:28.766Z,11.56
2019-04-26T21:36:11.191Z,11.43
2019-04-26T21:40:43.847Z,11.58
2019-04-26T21:44:54.820Z,11.60
2019-04-26T21:49:03.624Z,11.75
2019-04-26T21:53:13.240Z,11.74
2019-04-26T21:57:25.131Z,11.76
2019-04-26T22:01:33.086Z,11.53
2019-04-26T22:05:43.930Z,11.50
2019-04-26T22:10:25.997Z,11.18
2019-04-26T22:14:35.740Z,10.73
2019-04-26T22:19:01.137Z,10.90
2019-04-26T22:23:33.100Z,10.94
2019-04-26T22:27:43.679Z,11.02
2019-04-26T22:31:54.609Z,10.97
2019-04-26T22:36:01.496Z,11.13
2019-04-26T22:40:10.527Z,11.01
2019-04-26T22:44:31.317Z,10.96
2019-04-26T22:48:39.067Z,10.96
2019-04-26T22:52:51.591Z,10.77
2019-04-26T22:56:56.664Z,10.69
2019-04-26T23:01:06.216Z,10.66
2019-04-26T23:05:15.117Z,10.64
2019-04-26T23:09:23.814Z,10.70
2019-04-26T23:13:51.024Z,10.64
2019-04-26T23:18:16.555Z,10.63
2019-04-26T23:22:30.795Z,10.23
2019-04-26T23:26:37.441Z,9.91
2019-04-26T23:30:44.598Z,9.79
2019-04-26T23:34:53.520Z,9.87
2019-04-26T23:39:03.264Z,9.82
2019-04-26T23:43:13.063Z,9.95
2019-04-26T23:47:23.180Z,9.89
2019-04-26T23:51:30.476Z,10.29
2019-04-26T23:55:42.499Z,9.99
2019-04-26T23:59:51.038Z,10.35
